createdAt,value
2023-10-16T00:15:00.931Z,1023.8
2023-10-16T01:16:09.582Z,1023.7
2023-10-16T01:44:23.988Z,1023.3
2023-10-16T01:49:29.959Z,1023.1
2023-10-16T01:55:19.476Z,1023.2
2023-10-16T02:11:54.359Z,1023.1
2023-10-16T02:17:40.269Z,1022.9
2023-10-16T02:23:03.385Z,1022.8
2023-10-16T02:28:37.112Z,1022.9
2023-10-16T02:34:20.292Z,1022.9
2023-10-16T02:39:44.626Z,1023
2023-10-16T02:56:25.396Z,1023.1
2023-10-16T03:18:27.999Z,1023
2023-10-16T03:23:57.336Z,1023.1
2023-10-16T03:29:53.155Z,1023
2023-10-16T03:40:48.554Z,1023
2023-10-16T03:46:06.369Z,1023
2023-10-16T03:57:31.343Z,1023.2
2023-10-16T04:02:49.630Z,1023.3
2023-10-16T04:08:30.706Z,1023.3
2023-10-16T04:13:51.151Z,1023.2
2023-10-16T04:58:30.422Z,1022.9
2023-10-16T05:25:49.303Z,1022.8
2023-10-16T05:31:44.747Z,1022.7
2023-10-16T05:37:05.209Z,1022.7
2023-10-16T05:42:41.514Z,1022.7
2023-10-16T05:48:11.652Z,1022.7
2023-10-16T05:53:27.024Z,1022.8
2023-10-16T05:59:01.128Z,1022.9
2023-10-16T06:04:40.885Z,1023
2023-10-16T06:10:18.088Z,1023
2023-10-16T06:21:06.943Z,1023.2
2023-10-16T06:26:47.441Z,1023.1
2023-10-16T06:32:32.798Z,1023.2
2023-10-16T06:38:00.552Z,1023.2
2023-10-16T06:43:36.189Z,1023.2
2023-10-16T06:49:14.369Z,1023.2
2023-10-16T06:54:18.191Z,1023.1
2023-10-16T06:59:50.921Z,1023
2023-10-16T07:05:36.842Z,1023
2023-10-16T07:11:14.485Z,1023.1
2023-10-16T07:16:53.566Z,1022.8
2023-10-16T07:22:17.657Z,1022.8
2023-10-16T07:27:39.348Z,1022.9
2023-10-16T07:33:29.456Z,1022.9
2023-10-16T07:38:56.730Z,1022.8
2023-10-16T07:44:15.846Z,1023
2023-10-16T07:49:54.548Z,1023
2023-10-16T08:01:00.574Z,1022.8
2023-10-16T08:06:53.162Z,1022.8
2023-10-16T08:12:28.708Z,1022.8
2023-10-16T08:17:44.000Z,1022.9
2023-10-16T08:23:18.080Z,1022.9
2023-10-16T08:28:41.353Z,1022.9
2023-10-16T08:34:32.500Z,1022.8
2023-10-16T08:40:02.578Z,1022.7
2023-10-16T08:45:50.723Z,1022.8
2023-10-16T08:51:18.077Z,1022.8
2023-10-16T08:56:34.676Z,1022.7
2023-10-16T09:02:25.987Z,1022.6
2023-10-16T09:08:01.223Z,1022.6
2023-10-16T09:13:33.885Z,1022.6
2023-10-16T09:18:50.272Z,1022.6
2023-10-16T09:24:41.006Z,1022.6
2023-10-16T09:29:59.996Z,1022.5
2023-10-16T09:35:38.124Z,1022.3
2023-10-16T09:41:04.019Z,1022.3
2023-10-16T09:47:02.730Z,1022.1
2023-10-16T09:52:26.952Z,1022.2
2023-10-16T09:58:00.634Z,1022.2
2023-10-16T10:03:14.915Z,1022.1
2023-10-16T10:09:00.346Z,1022
2023-10-16T10:14:32.328Z,1021.9
2023-10-16T10:20:05.311Z,1021.8
2023-10-16T10:25:32.646Z,1021.7
2023-10-16T10:31:16.465Z,1021.7
2023-10-16T10:37:02.872Z,1021.6
2023-10-16T10:42:16.102Z,1021.5
2023-10-16T10:47:50.501Z,1021.4
2023-10-16T10:53:39.171Z,1021.2
2023-10-16T10:59:03.761Z,1021
2023-10-16T11:04:28.118Z,1021
2023-10-16T11:10:12.934Z,1020.8
2023-10-16T11:15:54.772Z,1020.6
2023-10-16T11:21:11.634Z,1020.6
2023-10-16T11:26:53.078Z,1020.3
2023-10-16T11:32:29.703Z,1020.3
2023-10-16T11:38:11.640Z,1020.1
2023-10-16T11:43:38.445Z,1020
2023-10-16T11:48:51.810Z,1020.1
2023-10-16T11:54:33.852Z,1019.9
2023-10-16T12:00:13.310Z,1019.8
2023-10-16T12:11:13.979Z,1019.5
2023-10-16T12:16:58.817Z,1019.3
2023-10-16T12:22:19.504Z,1019.3
2023-10-16T12:28:01.912Z,1019.3
2023-10-16T12:33:40.671Z,1019
2023-10-16T12:39:00.145Z,1019
2023-10-16T12:44:54.388Z,1018.8
2023-10-16T12:50:16.854Z,1018.7
2023-10-16T12:56:01.283Z,1018.8
2023-10-16T13:01:24.323Z,1018.6
2023-10-16T13:07:06.981Z,1018.6
2023-10-16T13:12:47.501Z,1018.5
2023-10-16T13:18:34.636Z,1018.4
2023-10-16T13:24:01.315Z,1018.3
2023-10-16T13:29:23.859Z,1018.2
2023-10-16T13:35:00.738Z,1018.1
2023-10-16T13:40:34.761Z,1018.1
2023-10-16T13:46:17.853Z,1018.2
2023-10-16T13:52:06.921Z,1018.2
2023-10-16T13:57:40.727Z,1018.1
2023-10-16T14:03:21.156Z,1018
2023-10-16T14:08:35.217Z,1017.9
2023-10-16T14:14:24.066Z,1017.9
2023-10-16T14:20:02.175Z,1017.9
2023-10-16T14:25:43.141Z,1017.7
2023-10-16T14:36:45.793Z,1017.8
2023-10-16T14:42:12.645Z,1017.8
2023-10-16T14:47:53.940Z,1017.8
2023-10-16T14:53:16.958Z,1017.9
2023-10-16T15:04:29.324Z,1017.8
2023-10-16T15:09:57.185Z,1017.9
2023-10-16T15:21:00.184Z,1017.8
2023-10-16T15:26:47.909Z,1017.8
2023-10-16T15:32:07.943Z,1017.9
2023-10-16T15:37:52.547Z,1017.9
2023-10-16T15:43:30.521Z,1018
2023-10-16T15:49:09.940Z,1018.1
2023-10-16T15:54:17.814Z,1018.3
2023-10-16T16:00:01.628Z,1018.2
2023-10-16T16:05:40.517Z,1018.4
2023-10-16T16:11:11.161Z,1018.5
2023-10-16T16:16:43.881Z,1018.7
2023-10-16T16:22:27.339Z,1018.8
2023-10-16T16:28:00.940Z,1018.8
2023-10-16T16:33:22.608Z,1018.7
2023-10-16T16:38:45.251Z,1018.9
2023-10-16T16:44:26.906Z,1019
2023-10-16T16:49:50.894Z,1019
2023-10-16T16:55:29.913Z,1019.1
2023-10-16T17:06:20.530Z,1019.2
2023-10-16T17:11:52.978Z,1019.3
2023-10-16T17:17:48.134Z,1019.5
2023-10-16T17:23:06.693Z,1019.8
2023-10-16T17:28:44.840Z,1019.9
2023-10-16T17:34:06.517Z,1020
2023-10-16T17:39:41.667Z,1020
2023-10-16T17:45:15.652Z,1019.8
2023-10-16T17:51:01.799Z,1019.9
2023-10-16T17:56:39.073Z,1019.9
2023-10-16T18:01:51.610Z,1019.8
2023-10-16T18:07:26.691Z,1019.8
2023-10-16T18:13:13.728Z,1019.7
2023-10-16T18:18:20.100Z,1019.7
2023-10-16T18:24:13.240Z,1019.9
2023-10-16T18:29:38.666Z,1020.1
2023-10-16T18:35:10.536Z,1020.3
2023-10-16T18:40:34.310Z,1020.3
2023-10-16T18:46:22.756Z,1020.5
2023-10-16T18:51:34.247Z,1020.3
2023-10-16T18:57:27.828Z,1020.1
2023-10-16T19:02:42.141Z,1020.1
2023-10-16T19:08:09.973Z,1020.2
2023-10-16T19:14:02.173Z,1020.1
2023-10-16T19:19:19.958Z,1019.9
2023-10-16T19:24:55.162Z,1019.7
2023-10-16T19:30:22.026Z,1020.1
2023-10-16T19:35:59.026Z,1020.3
2023-10-16T19:41:21.444Z,1020.6
2023-10-16T19:46:59.475Z,1020.8
2023-10-16T19:52:44.026Z,1020.9
2023-10-16T19:58:01.637Z,1021
2023-10-16T20:03:30.464Z,1020.8
2023-10-16T20:09:09.869Z,1020.5
2023-10-16T20:14:39.374Z,1020.7
2023-10-16T20:20:19.277Z,1020.7
2023-10-16T20:25:54.462Z,1020.7
2023-10-16T20:31:23.984Z,1020.4
2023-10-16T20:36:40.984Z,1020.4
2023-10-16T20:42:36.180Z,1020.3
2023-10-16T20:47:43.005Z,1020.3
2023-10-16T20:53:39.746Z,1020.4
2023-10-16T20:59:09.581Z,1020.4
2023-10-16T21:04:31.987Z,1020.6
2023-10-16T21:10:01.006Z,1020.7
2023-10-16T21:15:34.865Z,1020.7
2023-10-16T21:21:16.434Z,1020.7
2023-10-16T21:26:43.063Z,1020.7
2023-10-16T21:31:59.474Z,1020.7
2023-10-16T21:37:34.945Z,1020.9
2023-10-16T21:43:04.262Z,1020.9
2023-10-16T21:48:50.137Z,1020.8
2023-10-16T21:54:27.556Z,1020.9
2023-10-16T21:59:54.963Z,1020.8
2023-10-16T22:10:46.778Z,1021.2
2023-10-16T22:16:13.977Z,1021.2
2023-10-16T22:22:12.214Z,1021.4
2023-10-16T22:27:25.152Z,1021.4
2023-10-16T22:33:08.676Z,1021.5
2023-10-16T22:38:43.508Z,1021.6
2023-10-16T22:44:10.126Z,1021.7
2023-10-16T22:49:44.450Z,1021.8
2023-10-16T22:55:06.249Z,1021.9
2023-10-16T23:00:45.616Z,1021.9
2023-10-16T23:06:05.897Z,1021.9
2023-10-16T23:11:34.692Z,1021.8
2023-10-16T23:17:07.185Z,1021.8
2023-10-16T23:22:42.201Z,1021.9
2023-10-16T23:28:26.195Z,1022
2023-10-16T23:33:58.509Z,1022.1
2023-10-16T23:39:28.074Z,1022
2023-10-16T23:45:01.833Z,1022
2023-10-16T23:50:39.815Z,1022.1
2023-10-16T23:56:10.951Z,1022.1
